createdAt,value
2017-07-12T00:01:35.604Z,90.90
2017-07-12T00:04:04.133Z,91.40
2017-07-12T00:06:33.375Z,91.70
2017-07-12T00:09:01.805Z,90.80
2017-07-12T00:11:30.241Z,90.70
2017-07-12T00:13:58.721Z,90.90
2017-07-12T00:16:27.198Z,91.30
2017-07-12T00:18:55.634Z,92.20
2017-07-12T00:21:24.070Z,92.30
2017-07-12T00:23:52.554Z,91.70
2017-07-12T00:26:20.967Z,92.00
2017-07-12T00:28:49.386Z,92.50
2017-07-12T00:31:17.889Z,92.90
2017-07-12T00:33:46.329Z,93.30
2017-07-12T00:36:15.147Z,93.10
2017-07-12T00:38:43.615Z,91.60
2017-07-12T00:41:12.052Z,91.20
2017-07-12T00:43:40.561Z,91.20
2017-07-12T00:46:08.979Z,90.80
2017-07-12T00:48:37.411Z,90.90
2017-07-12T00:51:05.880Z,91.40
2017-07-12T00:53:34.969Z,91.00
2017-07-12T00:56:04.167Z,92.10
2017-07-12T00:58:32.590Z,91.00
2017-07-12T01:01:01.483Z,91.00
2017-07-12T01:03:29.921Z,91.10
2017-07-12T01:05:58.369Z,91.30
2017-07-12T01:08:26.851Z,91.30
2017-07-12T01:10:55.327Z,91.40
2017-07-12T01:13:24.543Z,90.80
2017-07-12T01:15:53.410Z,90.80
2017-07-12T01:18:21.832Z,90.90
2017-07-12T01:20:51.037Z,91.40
2017-07-12T01:23:19.520Z,91.60
2017-07-12T01:25:48.347Z,91.10
2017-07-12T01:28:16.852Z,91.20
2017-07-12T01:30:45.322Z,91.30
2017-07-12T01:33:13.822Z,91.20
2017-07-12T01:35:42.250Z,90.90
2017-07-12T01:38:10.733Z,90.90
2017-07-12T01:40:39.431Z,90.90
2017-07-12T01:43:07.907Z,90.10
2017-07-12T01:45:36.334Z,91.30
2017-07-12T01:48:05.163Z,90.70
2017-07-12T01:50:33.627Z,91.50
2017-07-12T01:53:02.813Z,92.00
2017-07-12T01:55:32.027Z,92.20
2017-07-12T01:58:00.463Z,91.80
2017-07-12T02:00:28.894Z,92.20
2017-07-12T02:02:57.424Z,91.70
2017-07-12T02:05:25.849Z,92.50
2017-07-12T02:07:54.675Z,92.30
2017-07-12T02:10:23.151Z,92.60
2017-07-12T02:12:51.712Z,92.70
2017-07-12T02:15:19.964Z,92.60
2017-07-12T02:17:49.314Z,92.80
2017-07-12T02:20:17.753Z,92.30
2017-07-12T02:22:46.223Z,92.20
2017-07-12T02:25:14.655Z,92.20
2017-07-12T02:27:43.111Z,91.80
2017-07-12T02:30:11.581Z,91.70
2017-07-12T02:32:40.762Z,91.70
2017-07-12T02:35:09.584Z,92.10
2017-07-12T02:37:38.086Z,91.70
2017-07-12T02:40:06.531Z,92.10
2017-07-12T02:42:35.200Z,92.30
2017-07-12T02:45:03.731Z,92.50
2017-07-12T02:47:32.163Z,92.60
2017-07-12T02:50:00.989Z,92.20
2017-07-12T02:52:29.464Z,91.80
2017-07-12T02:54:57.892Z,91.30
2017-07-12T02:57:26.138Z,91.40
2017-07-12T02:59:54.638Z,91.80
2017-07-12T03:02:23.117Z,91.80
2017-07-12T03:04:51.544Z,92.60
2017-07-12T03:07:20.013Z,93.40
2017-07-12T03:09:49.220Z,94.10
2017-07-12T03:12:17.649Z,94.10
2017-07-12T03:14:46.124Z,95.00
2017-07-12T03:17:14.552Z,95.90
2017-07-12T03:19:43.406Z,96.00
2017-07-12T03:22:11.842Z,95.80
2017-07-12T03:24:40.271Z,95.00
2017-07-12T03:27:08.736Z,95.20
2017-07-12T03:29:37.164Z,95.00
2017-07-12T03:32:05.657Z,94.30
2017-07-12T03:34:34.552Z,93.90
2017-07-12T03:37:03.750Z,93.50
2017-07-12T03:39:55.074Z,93.90
2017-07-12T03:42:23.500Z,93.20
2017-07-12T03:44:51.983Z,93.30
2017-07-12T03:47:20.414Z,93.20
2017-07-12T03:49:48.839Z,92.80
2017-07-12T03:52:17.302Z,92.70
2017-07-12T03:54:45.748Z,92.50
2017-07-12T03:57:14.994Z,92.80
2017-07-12T03:59:43.425Z,92.10
2017-07-12T04:02:12.610Z,92.50
2017-07-12T04:04:41.471Z,91.70
2017-07-12T04:07:09.927Z,91.80
2017-07-12T04:09:38.751Z,90.90
2017-07-12T04:12:07.229Z,90.90
2017-07-12T04:14:35.709Z,90.60
2017-07-12T04:17:04.610Z,90.50
2017-07-12T04:19:33.047Z,90.00
2017-07-12T04:22:01.547Z,89.50
2017-07-12T04:24:29.977Z,89.50
2017-07-12T04:26:58.443Z,89.90
2017-07-12T04:29:26.890Z,90.20
2017-07-12T04:31:55.365Z,90.70
2017-07-12T04:34:23.803Z,91.00
2017-07-12T04:36:52.235Z,90.60
2017-07-12T04:39:20.704Z,91.00
2017-07-12T04:41:49.191Z,90.50
2017-07-12T04:44:17.615Z,90.00
2017-07-12T04:46:46.058Z,89.60
2017-07-12T04:49:14.544Z,88.20
2017-07-12T04:51:42.969Z,88.40
2017-07-12T04:54:11.408Z,87.90
2017-07-12T04:56:40.638Z,86.60
2017-07-12T04:59:09.824Z,85.80
2017-07-12T05:01:39.021Z,83.00
2017-07-12T05:04:08.605Z,78.90
2017-07-12T05:06:37.039Z,76.50
2017-07-12T05:09:05.204Z,75.30
2017-07-12T05:11:33.625Z,74.30
2017-07-12T05:14:02.051Z,75.00
2017-07-12T05:16:31.282Z,76.90
2017-07-12T05:18:59.784Z,76.20
2017-07-12T05:21:28.217Z,76.60
2017-07-12T05:23:57.092Z,77.90
2017-07-12T05:26:25.347Z,78.00
2017-07-12T05:28:53.647Z,77.50
2017-07-12T05:31:22.074Z,77.50
2017-07-12T05:33:50.937Z,76.20
2017-07-12T05:36:19.090Z,76.20
2017-07-12T05:38:47.524Z,75.20
2017-07-12T05:41:16.013Z,73.40
2017-07-12T05:43:44.443Z,72.80
2017-07-12T05:46:13.646Z,73.40
2017-07-12T05:48:42.536Z,72.40
2017-07-12T05:51:10.970Z,76.00
2017-07-12T05:53:39.406Z,77.40
2017-07-12T05:56:07.868Z,79.40
2017-07-12T05:58:37.070Z,81.50
2017-07-12T06:01:05.956Z,80.20
2017-07-12T06:03:35.158Z,79.10
2017-07-12T06:06:04.002Z,76.80
2017-07-12T06:08:32.827Z,76.00
2017-07-12T06:11:01.260Z,76.60
2017-07-12T06:13:29.967Z,76.80
2017-07-12T06:15:59.576Z,76.60
2017-07-12T06:18:28.006Z,73.90
2017-07-12T06:20:57.419Z,72.20
2017-07-12T06:23:25.909Z,71.60
2017-07-12T06:25:54.340Z,70.70
2017-07-12T06:28:22.796Z,68.70
2017-07-12T06:30:51.289Z,67.00
2017-07-12T06:33:19.787Z,66.90
2017-07-12T06:35:49.036Z,68.50
2017-07-12T06:38:17.485Z,69.10
2017-07-12T06:40:45.909Z,69.80
2017-07-12T06:43:14.371Z,69.60
2017-07-12T06:45:42.803Z,68.50
2017-07-12T06:48:11.296Z,69.30
2017-07-12T06:50:40.689Z,67.60
2017-07-12T06:53:10.270Z,66.00
2017-07-12T06:55:38.691Z,66.00
2017-07-12T06:58:07.133Z,65.90
2017-07-12T07:00:35.638Z,66.40
2017-07-12T07:03:04.969Z,65.90
2017-07-12T07:05:33.420Z,65.10
2017-07-12T07:08:02.362Z,65.60
2017-07-12T07:10:30.947Z,64.70
2017-07-12T07:12:59.403Z,61.90
2017-07-12T07:15:27.922Z,62.90
2017-07-12T07:17:56.479Z,62.10
2017-07-12T07:20:24.951Z,63.40
2017-07-12T07:22:53.518Z,62.10
2017-07-12T07:25:22.422Z,60.50
2017-07-12T07:27:51.634Z,58.80
2017-07-12T07:30:20.121Z,57.00
2017-07-12T07:32:48.568Z,56.70
2017-07-12T07:35:17.835Z,55.60
2017-07-12T07:37:46.283Z,55.20
2017-07-12T07:40:15.868Z,56.50
2017-07-12T07:42:44.330Z,57.50
2017-07-12T07:45:12.852Z,58.10
2017-07-12T07:47:41.337Z,59.00
2017-07-12T07:50:09.781Z,58.60
2017-07-12T07:52:38.346Z,58.90
2017-07-12T07:55:07.158Z,58.50
2017-07-12T07:57:35.624Z,59.90
2017-07-12T08:00:04.162Z,59.60
2017-07-12T08:02:32.619Z,57.50
2017-07-12T08:05:01.065Z,58.40
2017-07-12T08:07:30.340Z,58.00
2017-07-12T08:09:59.810Z,56.90
2017-07-12T08:12:28.263Z,56.20
2017-07-12T08:14:56.740Z,56.00
2017-07-12T08:17:25.578Z,54.20
2017-07-12T08:19:54.961Z,55.40
2017-07-12T08:22:23.423Z,53.50
2017-07-12T08:24:52.175Z,51.70
2017-07-12T08:27:20.685Z,50.60
2017-07-12T08:29:49.112Z,47.50
2017-07-12T08:32:17.566Z,45.50
2017-07-12T08:34:46.063Z,46.50
2017-07-12T08:37:14.510Z,48.00
2017-07-12T08:39:42.948Z,47.30
2017-07-12T08:42:11.455Z,47.50
2017-07-12T08:44:40.669Z,48.90
2017-07-12T08:47:09.539Z,49.20
2017-07-12T08:49:38.433Z,49.30
2017-07-12T08:52:07.631Z,50.00
2017-07-12T08:54:37.239Z,51.30
2017-07-12T08:57:06.447Z,52.70
2017-07-12T08:59:35.270Z,54.20
2017-07-12T09:02:03.809Z,54.30
2017-07-12T09:04:32.234Z,54.70
2017-07-12T09:07:00.677Z,55.00
2017-07-12T09:09:30.173Z,55.70
2017-07-12T09:11:58.616Z,54.60
2017-07-12T09:14:27.071Z,53.80
2017-07-12T09:16:55.547Z,52.10
2017-07-12T09:19:23.988Z,51.30
2017-07-12T09:21:52.871Z,50.50
2017-07-12T09:34:16.322Z,39.50
2017-07-12T09:36:45.530Z,40.10
2017-07-12T09:39:14.007Z,41.30
2017-07-12T09:41:43.265Z,43.30
2017-07-12T09:44:11.690Z,45.70
2017-07-12T09:46:40.128Z,47.70
2017-07-12T09:49:08.622Z,48.40
2017-07-12T09:51:37.040Z,47.40
2017-07-12T09:54:05.476Z,47.90
2017-07-12T09:56:33.945Z,48.80
2017-07-12T09:59:02.382Z,47.80
2017-07-12T10:01:31.572Z,45.10
2017-07-12T10:04:00.037Z,42.50
2017-07-12T10:06:28.477Z,39.30
2017-07-12T10:08:58.229Z,38.80
2017-07-12T10:14:27.484Z,36.50
2017-07-12T10:16:56.675Z,38.30
2017-07-12T10:19:25.113Z,39.70
2017-07-12T10:21:53.609Z,41.90
2017-07-12T10:24:22.045Z,40.80
2017-07-12T10:26:50.493Z,39.50
2017-07-12T10:29:19.001Z,40.60
2017-07-12T10:31:48.522Z,42.60
2017-07-12T10:34:17.001Z,44.20
2017-07-12T10:36:45.429Z,46.70
2017-07-12T10:39:14.034Z,48.00
2017-07-12T10:41:42.487Z,47.30
2017-07-12T10:44:11.733Z,46.60
2017-07-12T10:46:40.160Z,45.60
2017-07-12T10:49:08.594Z,46.20
2017-07-12T10:51:37.128Z,47.50
2017-07-12T10:54:05.552Z,48.30
2017-07-12T10:56:34.045Z,48.80
2017-07-12T10:59:02.553Z,48.60
2017-07-12T11:01:31.767Z,50.60
2017-07-12T11:04:00.199Z,49.90
2017-07-12T11:06:29.096Z,53.30
2017-07-12T11:08:57.550Z,54.20
2017-07-12T11:11:26.099Z,60.60
2017-07-12T11:13:54.546Z,60.80
2017-07-12T11:16:23.012Z,58.00
2017-07-12T11:18:51.455Z,58.30
2017-07-12T11:21:19.927Z,57.20
2017-07-12T11:23:48.413Z,57.20
2017-07-12T11:26:17.293Z,56.80
2017-07-12T11:28:45.729Z,56.70
2017-07-12T11:31:14.969Z,57.10
2017-07-12T11:33:43.422Z,59.90
2017-07-12T11:36:12.635Z,60.10
2017-07-12T11:38:41.511Z,59.80
2017-07-12T11:41:11.043Z,59.90
2017-07-12T11:43:39.491Z,59.60
2017-07-12T11:46:07.939Z,63.60
2017-07-12T11:48:36.426Z,66.10
2017-07-12T11:51:04.990Z,70.60
2017-07-12T11:53:33.422Z,67.30
2017-07-12T11:56:02.246Z,64.70
2017-07-12T11:58:30.735Z,65.50
2017-07-12T12:00:59.222Z,62.00
2017-07-12T12:03:27.707Z,59.70
2017-07-12T12:05:56.176Z,54.20
2017-07-12T12:08:24.695Z,54.60
2017-07-12T12:10:53.158Z,54.80
2017-07-12T12:13:21.615Z,55.90
2017-07-12T12:15:50.865Z,54.80
2017-07-12T12:18:19.309Z,55.50
2017-07-12T12:20:47.823Z,56.50
2017-07-12T12:23:16.383Z,57.50
2017-07-12T12:25:44.826Z,56.10
2017-07-12T12:28:13.280Z,55.40
2017-07-12T12:30:41.807Z,52.40
2017-07-12T12:33:10.267Z,43.80
2017-07-12T12:35:38.699Z,43.80
2017-07-12T12:38:08.329Z,46.00
2017-07-12T12:40:37.162Z,49.00
2017-07-12T12:43:05.687Z,52.80
2017-07-12T12:45:33.944Z,54.50
2017-07-12T12:48:02.370Z,55.10
2017-07-12T12:50:30.877Z,55.50
2017-07-12T12:53:00.577Z,55.00
2017-07-12T12:55:29.045Z,55.60
2017-07-12T12:57:57.342Z,56.10
2017-07-12T13:00:26.635Z,55.60
2017-07-12T13:02:55.106Z,56.50
2017-07-12T13:05:28.904Z,57.20
2017-07-12T13:07:57.405Z,55.90
2017-07-12T13:10:50.709Z,55.80
2017-07-12T13:13:19.238Z,54.60
2017-07-12T13:15:47.693Z,54.70
2017-07-12T13:18:16.144Z,52.00
2017-07-12T13:20:45.465Z,51.60
2017-07-12T13:23:13.906Z,50.30
2017-07-12T13:25:42.734Z,51.60
2017-07-12T13:28:11.242Z,53.00
2017-07-12T13:30:39.677Z,54.90
2017-07-12T13:33:08.111Z,61.10
2017-07-12T13:35:36.600Z,61.10
2017-07-12T13:38:06.339Z,62.60
2017-07-12T13:40:34.817Z,58.20
2017-07-12T13:43:03.259Z,56.60
2017-07-12T13:45:31.693Z,58.30
2017-07-12T13:48:00.192Z,55.80
2017-07-12T13:50:28.642Z,51.20
2017-07-12T13:52:57.877Z,51.40
2017-07-12T13:55:26.361Z,50.70
2017-07-12T13:57:54.839Z,48.90
2017-07-12T14:00:23.282Z,48.50
2017-07-12T14:02:51.702Z,46.50
2017-07-12T14:05:20.955Z,48.00
2017-07-12T14:07:49.381Z,47.70
2017-07-12T14:10:17.803Z,47.20
2017-07-12T14:12:46.276Z,50.70
2017-07-12T14:15:15.160Z,56.10
2017-07-12T14:17:43.589Z,57.80
2017-07-12T14:20:12.182Z,58.40
2017-07-12T14:22:40.668Z,60.40
2017-07-12T14:25:09.117Z,63.40
2017-07-12T14:27:37.618Z,65.80
2017-07-12T14:30:06.047Z,66.90
2017-07-12T14:32:34.540Z,63.00
2017-07-12T14:35:02.981Z,60.70
2017-07-12T14:37:31.700Z,58.10
2017-07-12T14:40:00.135Z,57.20
2017-07-12T14:42:29.333Z,57.70
2017-07-12T14:44:57.819Z,57.80
2017-07-12T14:47:27.117Z,59.00
2017-07-12T14:49:55.557Z,58.20
2017-07-12T14:52:24.095Z,57.30
2017-07-12T14:54:52.731Z,59.40
2017-07-12T14:57:21.182Z,62.40
2017-07-12T15:00:17.768Z,61.90
2017-07-12T15:02:47.439Z,59.70
2017-07-12T15:05:15.873Z,59.40
2017-07-12T15:07:44.300Z,61.30
2017-07-12T15:10:13.856Z,69.60
2017-07-12T15:12:42.298Z,75.90
2017-07-12T15:15:11.216Z,78.70
2017-07-12T15:17:39.717Z,79.00
2017-07-12T15:20:08.142Z,77.00
2017-07-12T15:22:36.613Z,72.90
2017-07-12T15:25:05.087Z,71.40
2017-07-12T15:27:33.591Z,68.60
2017-07-12T15:30:02.664Z,70.60
2017-07-12T15:32:31.091Z,74.20
2017-07-12T15:34:59.592Z,72.50
2017-07-12T15:37:28.057Z,72.90
2017-07-12T15:39:56.508Z,72.00
2017-07-12T15:42:25.023Z,70.80
2017-07-12T15:44:53.481Z,70.80
2017-07-12T15:47:21.908Z,70.70
2017-07-12T15:49:50.401Z,70.30
2017-07-12T15:52:19.608Z,64.40
2017-07-12T15:54:48.085Z,61.10
2017-07-12T15:57:16.529Z,59.90
2017-07-12T15:59:44.973Z,61.10
2017-07-12T16:02:13.861Z,62.00
2017-07-12T16:04:42.288Z,63.20
2017-07-12T16:07:10.730Z,62.70
2017-07-12T16:09:39.217Z,61.80
2017-07-12T16:12:08.411Z,62.80
2017-07-12T16:14:36.861Z,65.30
2017-07-12T16:17:05.344Z,64.20
2017-07-12T16:19:34.580Z,64.90
2017-07-12T16:22:03.016Z,63.70
2017-07-12T16:24:31.490Z,62.80
2017-07-12T16:27:00.707Z,62.00
2017-07-12T16:29:29.414Z,63.10
2017-07-12T16:31:58.299Z,66.80
2017-07-12T16:34:26.729Z,71.20
2017-07-12T16:36:55.963Z,79.50
2017-07-12T16:39:24.408Z,84.80
2017-07-12T16:41:53.656Z,90.80
2017-07-12T16:44:22.490Z,92.40
2017-07-12T16:46:50.925Z,95.10
2017-07-12T16:49:19.970Z,92.70
2017-07-12T16:51:48.432Z,93.20
2017-07-12T16:54:17.634Z,93.70
2017-07-12T16:56:46.130Z,94.50
2017-07-12T16:59:14.571Z,94.30
2017-07-12T17:01:43.013Z,94.10
2017-07-12T17:04:11.510Z,93.60
2017-07-12T17:06:40.341Z,93.90
2017-07-12T17:09:08.787Z,93.30
2017-07-12T17:11:37.243Z,94.90
2017-07-12T17:14:06.444Z,95.80
2017-07-12T17:16:34.873Z,95.70
2017-07-12T17:19:03.591Z,95.40
2017-07-12T17:21:32.030Z,96.80
2017-07-12T17:24:00.454Z,96.50
2017-07-12T17:26:29.541Z,96.60
2017-07-12T17:28:58.790Z,97.10
2017-07-12T17:31:27.238Z,96.50
2017-07-12T17:33:56.438Z,97.70
2017-07-12T17:36:24.916Z,95.30
2017-07-12T17:38:53.410Z,95.90
2017-07-12T17:41:21.888Z,96.60
2017-07-12T17:43:50.329Z,96.60
2017-07-12T17:46:18.800Z,96.60
2017-07-12T17:48:47.278Z,96.90
2017-07-12T17:51:15.707Z,97.50
2017-07-12T17:53:44.968Z,97.20
2017-07-12T17:56:13.436Z,95.60
2017-07-12T17:58:41.911Z,96.90
2017-07-12T18:01:10.424Z,96.90
2017-07-12T18:03:38.870Z,96.00
2017-07-12T18:06:07.321Z,95.40
2017-07-12T18:08:35.784Z,96.90
2017-07-12T18:11:04.249Z,96.90
2017-07-12T18:13:32.727Z,96.30
2017-07-12T18:16:01.348Z,97.00
2017-07-12T18:18:30.189Z,96.80
2017-07-12T18:20:58.657Z,97.20
2017-07-12T18:23:27.112Z,96.10
2017-07-12T18:25:56.176Z,95.30
2017-07-12T18:28:25.369Z,96.70
2017-07-12T18:30:54.710Z,97.50
2017-07-12T18:33:23.228Z,96.50
2017-07-12T18:35:51.668Z,96.90
2017-07-12T18:38:20.309Z,97.10
2017-07-12T18:40:48.825Z,98.30
2017-07-12T18:43:17.269Z,97.40
2017-07-12T18:45:46.465Z,99.30
2017-07-12T18:48:14.968Z,97.10
2017-07-12T18:50:43.437Z,98.10
2017-07-12T18:53:12.280Z,95.50
2017-07-12T18:55:40.777Z,93.90
2017-07-12T18:58:09.199Z,91.50
2017-07-12T19:00:37.661Z,94.00
2017-07-12T19:03:06.151Z,89.70
2017-07-12T19:05:35.364Z,84.00
2017-07-12T19:08:03.796Z,85.20
2017-07-12T19:10:32.301Z,84.40
2017-07-12T19:13:00.738Z,85.60
2017-07-12T19:15:29.575Z,85.50
2017-07-12T19:17:58.452Z,87.00
2017-07-12T19:20:27.657Z,84.30
2017-07-12T19:22:56.559Z,84.00
2017-07-12T19:25:25.424Z,85.50
2017-07-12T19:27:54.286Z,84.50
2017-07-12T19:30:23.755Z,86.00
2017-07-12T19:32:52.949Z,86.30
2017-07-12T19:35:22.556Z,84.30
2017-07-12T19:37:51.025Z,85.90
2017-07-12T19:40:19.553Z,86.60
2017-07-12T19:42:48.046Z,86.30
2017-07-12T19:45:16.540Z,86.10
2017-07-12T19:47:45.456Z,87.70
2017-07-12T19:50:15.072Z,86.90
2017-07-12T19:52:44.000Z,88.30
2017-07-12T19:55:12.694Z,88.40
2017-07-12T19:57:41.537Z,88.80
2017-07-12T20:00:10.042Z,88.10
2017-07-12T20:02:38.511Z,87.90
2017-07-12T20:05:07.481Z,87.30
2017-07-12T20:07:36.056Z,87.70
2017-07-12T20:10:04.921Z,87.30
2017-07-12T20:12:34.157Z,87.20
2017-07-12T20:15:03.375Z,88.10
2017-07-12T20:17:32.011Z,87.30
2017-07-12T20:20:01.425Z,88.70
2017-07-12T20:22:30.311Z,90.00
2017-07-12T20:24:59.645Z,90.00
2017-07-12T20:27:28.154Z,90.80
2017-07-12T20:29:57.757Z,91.30
2017-07-12T20:32:27.129Z,92.00
2017-07-12T20:34:55.566Z,93.00
2017-07-12T20:37:24.040Z,93.30
2017-07-12T20:39:52.534Z,91.70
2017-07-12T20:42:22.112Z,92.90
2017-07-12T20:44:50.553Z,91.80
2017-07-12T20:47:19.072Z,90.80
2017-07-12T20:49:47.535Z,91.10
2017-07-12T20:52:17.115Z,89.90
2017-07-12T20:54:45.960Z,88.70
2017-07-12T20:57:14.851Z,88.10
2017-07-12T20:59:43.727Z,88.10
2017-07-12T21:02:12.655Z,88.90
2017-07-12T21:04:41.879Z,88.50
2017-07-12T21:07:10.403Z,88.60
2017-07-12T21:09:39.256Z,88.80
2017-07-12T21:12:08.661Z,89.10
2017-07-12T21:14:37.120Z,89.60
2017-07-12T21:17:06.333Z,91.10
2017-07-12T21:19:35.247Z,91.10
2017-07-12T21:22:04.295Z,91.50
2017-07-12T21:24:33.514Z,89.20
2017-07-12T21:27:01.973Z,91.20
2017-07-12T21:29:30.809Z,89.00
2017-07-12T21:31:59.473Z,87.90
2017-07-12T21:34:29.425Z,88.00
2017-07-12T21:36:57.893Z,89.00
2017-07-12T21:39:26.383Z,90.30
2017-07-12T21:41:54.949Z,89.50
2017-07-12T21:44:23.597Z,89.30
2017-07-12T21:46:52.500Z,91.10
2017-07-12T21:49:21.340Z,90.70
2017-07-12T21:51:50.189Z,88.80
2017-07-12T21:54:35.362Z,89.50
2017-07-12T21:57:20.804Z,88.70
2017-07-12T22:00:06.268Z,86.40
2017-07-12T22:02:51.764Z,88.10
2017-07-12T22:05:37.263Z,89.60
2017-07-12T22:08:22.801Z,90.10
2017-07-12T22:11:08.920Z,89.40
2017-07-12T22:13:53.960Z,89.90
2017-07-12T22:16:39.095Z,86.90
2017-07-12T22:19:24.948Z,87.60
2017-07-12T22:22:10.449Z,87.30
2017-07-12T22:24:55.888Z,87.80
2017-07-12T22:27:41.714Z,88.40
2017-07-12T22:30:28.220Z,90.00
2017-07-12T22:33:14.797Z,91.00
2017-07-12T22:36:00.164Z,91.40
2017-07-12T22:38:34.779Z,91.90
2017-07-12T22:41:09.057Z,92.60
2017-07-12T22:43:36.831Z,92.90
2017-07-12T22:46:05.714Z,93.10
2017-07-12T22:48:34.241Z,93.20
2017-07-12T22:51:02.682Z,93.80
2017-07-12T22:53:31.123Z,93.90
2017-07-12T22:55:59.658Z,94.60
2017-07-12T22:58:29.086Z,94.20
2017-07-12T23:00:58.332Z,94.40
2017-07-12T23:03:27.188Z,94.40
2017-07-12T23:05:56.290Z,95.00
2017-07-12T23:08:25.252Z,95.10
2017-07-12T23:10:54.464Z,95.80
2017-07-12T23:13:23.559Z,96.80
2017-07-12T23:15:52.777Z,97.20
2017-07-12T23:18:21.671Z,97.50
2017-07-12T23:20:50.557Z,97.80
2017-07-12T23:23:19.716Z,97.50
2017-07-12T23:25:48.376Z,95.60
2017-07-12T23:28:17.788Z,95.30
2017-07-12T23:30:46.236Z,93.70
2017-07-12T23:33:14.703Z,93.20
2017-07-12T23:35:43.181Z,92.60
2017-07-12T23:38:12.532Z,92.10
2017-07-12T23:40:40.980Z,92.10
2017-07-12T23:43:09.880Z,91.50
2017-07-12T23:45:38.952Z,90.60
2017-07-12T23:48:07.841Z,89.10
2017-07-12T23:50:37.086Z,88.20
2017-07-12T23:53:05.553Z,88.10
2017-07-12T23:55:33.998Z,87.50
2017-07-12T23:58:03.254Z,87.10
